sensor_id;sensor_type;location;lat;lon;timestamp;P1;durP1;ratioP1;P2;durP2;ratioP2
18196;SDS011;9224;52.422;13.024;2022-08-06T00:00:03;1.88;;;1.17;;
18196;SDS011;9224;52.422;13.024;2022-08-06T00:02:31;1.58;;;1.05;;
18196;SDS011;9224;52.422;13.024;2022-08-06T00:04:58;0.95;;;0.85;;
18196;SDS011;9224;52.422;13.024;2022-08-06T00:07:26;2.50;;;1.40;;
18196;SDS011;9224;52.422;13.024;2022-08-06T00:09:53;1.85;;;1.08;;
18196;SDS011;9224;52.422;13.024;2022-08-06T00:12:20;1.85;;;1.05;;
18196;SDS011;9224;52.422;13.024;2022-08-06T00:14:47;1.67;;;0.95;;
18196;SDS011;9224;52.422;13.024;2022-08-06T00:17:13;1.52;;;1.23;;
18196;SDS011;9224;52.422;13.024;2022-08-06T00:19:39;1.07;;;1.00;;
18196;SDS011;9224;52.422;13.024;2022-08-06T00:22:06;0.93;;;0.88;;
18196;SDS011;9224;52.422;13.024;2022-08-06T00:24:32;1.70;;;0.98;;
18196;SDS011;9224;52.422;13.024;2022-08-06T00:27:00;1.60;;;0.80;;
18196;SDS011;9224;52.422;13.024;2022-08-06T00:29:27;2.08;;;1.00;;
18196;SDS011;9224;52.422;13.024;2022-08-06T00:31:53;1.70;;;0.90;;
18196;SDS011;9224;52.422;13.024;2022-08-06T00:34:20;1.30;;;0.98;;
18196;SDS011;9224;52.422;13.024;2022-08-06T00:36:46;1.08;;;0.98;;
18196;SDS011;9224;52.422;13.024;2022-08-06T00:39:13;2.22;;;1.00;;
18196;SDS011;9224;52.422;13.024;2022-08-06T00:41:39;1.50;;;0.80;;
18196;SDS011;9224;52.422;13.024;2022-08-06T00:44:07;1.80;;;0.95;;
18196;SDS011;9224;52.422;13.024;2022-08-06T00:46:34;1.63;;;1.02;;
18196;SDS011;9224;52.422;13.024;2022-08-06T00:49:00;0.77;;;0.70;;
18196;SDS011;9224;52.422;13.024;2022-08-06T00:51:27;1.20;;;0.75;;
18196;SDS011;9224;52.422;13.024;2022-08-06T00:53:53;1.10;;;0.80;;
18196;SDS011;9224;52.422;13.024;2022-08-06T00:56:20;1.13;;;0.80;;
18196;SDS011;9224;52.422;13.024;2022-08-06T00:58:46;1.20;;;0.75;;
18196;SDS011;9224;52.422;13.024;2022-08-06T01:01:14;1.02;;;0.98;;
18196;SDS011;9224;52.422;13.024;2022-08-06T01:03:41;1.23;;;0.90;;
18196;SDS011;9224;52.422;13.024;2022-08-06T01:06:07;1.20;;;0.90;;
18196;SDS011;9224;52.422;13.024;2022-08-06T01:08:34;1.88;;;1.02;;
18196;SDS011;9224;52.422;13.024;2022-08-06T01:11:00;1.50;;;1.00;;
18196;SDS011;9224;52.422;13.024;2022-08-06T01:13:27;1.95;;;1.00;;
18196;SDS011;9224;52.422;13.024;2022-08-06T01:15:56;1.02;;;0.90;;
18196;SDS011;9224;52.422;13.024;2022-08-06T01:18:27;1.00;;;0.77;;
18196;SDS011;9224;52.422;13.024;2022-08-06T01:21:01;1.75;;;1.10;;
18196;SDS011;9224;52.422;13.024;2022-08-06T01:23:38;1.50;;;0.90;;
18196;SDS011;9224;52.422;13.024;2022-08-06T01:26:21;1.90;;;0.88;;
18196;SDS011;9224;52.422;13.024;2022-08-06T01:28:54;1.58;;;1.00;;
18196;SDS011;9224;52.422;13.024;2022-08-06T01:31:24;1.70;;;0.80;;
18196;SDS011;9224;52.422;13.024;2022-08-06T01:33:54;1.25;;;0.95;;
18196;SDS011;9224;52.422;13.024;2022-08-06T01:36:30;2.30;;;1.10;;
18196;SDS011;9224;52.422;13.024;2022-08-06T01:38:59;3.15;;;1.20;;
18196;SDS011;9224;52.422;13.024;2022-08-06T01:41:27;1.70;;;0.90;;
18196;SDS011;9224;52.422;13.024;2022-08-06T01:44:09;2.92;;;1.08;;
18196;SDS011;9224;52.422;13.024;2022-08-06T01:46:37;1.33;;;1.20;;
18196;SDS011;9224;52.422;13.024;2022-08-06T01:49:07;1.20;;;0.88;;
18196;SDS011;9224;52.422;13.024;2022-08-06T01:51:34;1.67;;;1.10;;
18196;SDS011;9224;52.422;13.024;2022-08-06T01:54:03;1.35;;;1.00;;
18196;SDS011;9224;52.422;13.024;2022-08-06T01:56:30;1.00;;;0.90;;
18196;SDS011;9224;52.422;13.024;2022-08-06T01:58:57;1.50;;;1.05;;
18196;SDS011;9224;52.422;13.024;2022-08-06T02:01:26;1.83;;;0.90;;
18196;SDS011;9224;52.422;13.024;2022-08-06T02:03:55;1.67;;;1.10;;
18196;SDS011;9224;52.422;13.024;2022-08-06T02:06:23;2.80;;;0.95;;
18196;SDS011;9224;52.422;13.024;2022-08-06T02:08:52;1.27;;;1.00;;
18196;SDS011;9224;52.422;13.024;2022-08-06T02:11:19;1.30;;;0.90;;
18196;SDS011;9224;52.422;13.024;2022-08-06T02:13:46;1.95;;;1.10;;
18196;SDS011;9224;52.422;13.024;2022-08-06T02:16:13;1.20;;;1.00;;
18196;SDS011;9224;52.422;13.024;2022-08-06T02:18:43;2.27;;;0.90;;
18196;SDS011;9224;52.422;13.024;2022-08-06T02:21:12;1.60;;;1.10;;
18196;SDS011;9224;52.422;13.024;2022-08-06T02:23:41;1.77;;;1.00;;
18196;SDS011;9224;52.422;13.024;2022-08-06T02:26:07;2.33;;;1.27;;
18196;SDS011;9224;52.422;13.024;2022-08-06T02:28:35;2.10;;;1.43;;
18196;SDS011;9224;52.422;13.024;2022-08-06T02:31:02;1.50;;;1.00;;
18196;SDS011;9224;52.422;13.024;2022-08-06T02:33:29;1.00;;;0.90;;
18196;SDS011;9224;52.422;13.024;2022-08-06T02:35:58;1.50;;;1.10;;
18196;SDS011;9224;52.422;13.024;2022-08-06T02:38:28;1.20;;;1.10;;
18196;SDS011;9224;52.422;13.024;2022-08-06T02:41:00;2.93;;;1.20;;
18196;SDS011;9224;52.422;13.024;2022-08-06T02:43:30;2.77;;;1.10;;
18196;SDS011;9224;52.422;13.024;2022-08-06T02:46:01;2.63;;;1.27;;
18196;SDS011;9224;52.422;13.024;2022-08-06T02:48:51;2.03;;;1.10;;
18196;SDS011;9224;52.422;13.024;2022-08-06T02:51:39;6.53;;;1.30;;
18196;SDS011;9224;52.422;13.024;2022-08-06T02:54:09;1.53;;;0.90;;
18196;SDS011;9224;52.422;13.024;2022-08-06T02:56:40;1.03;;;0.97;;
18196;SDS011;9224;52.422;13.024;2022-08-06T02:59:09;2.00;;;1.00;;
18196;SDS011;9224;52.422;13.024;2022-08-06T03:01:37;1.30;;;1.00;;
18196;SDS011;9224;52.422;13.024;2022-08-06T03:04:05;1.77;;;0.70;;
18196;SDS011;9224;52.422;13.024;2022-08-06T03:06:33;4.77;;;1.33;;
18196;SDS011;9224;52.422;13.024;2022-08-06T03:09:03;4.17;;;1.20;;
18196;SDS011;9224;52.422;13.024;2022-08-06T03:11:32;2.00;;;1.03;;
18196;SDS011;9224;52.422;13.024;2022-08-06T03:14:00;1.17;;;1.17;;
18196;SDS011;9224;52.422;13.024;2022-08-06T03:16:27;2.43;;;1.60;;
18196;SDS011;9224;52.422;13.024;2022-08-06T03:18:56;2.00;;;1.33;;
18196;SDS011;9224;52.422;13.024;2022-08-06T03:21:23;1.50;;;1.20;;
18196;SDS011;9224;52.422;13.024;2022-08-06T03:23:50;1.90;;;1.27;;
18196;SDS011;9224;52.422;13.024;2022-08-06T03:26:19;4.07;;;1.40;;
18196;SDS011;9224;52.422;13.024;2022-08-06T03:28:45;2.20;;;1.30;;
18196;SDS011;9224;52.422;13.024;2022-08-06T03:31:12;3.67;;;1.40;;
18196;SDS011;9224;52.422;13.024;2022-08-06T03:33:39;2.37;;;1.60;;
18196;SDS011;9224;52.422;13.024;2022-08-06T03:36:06;1.53;;;1.37;;
18196;SDS011;9224;52.422;13.024;2022-08-06T03:38:34;1.70;;;1.60;;
18196;SDS011;9224;52.422;13.024;2022-08-06T03:41:04;4.07;;;1.70;;
18196;SDS011;9224;52.422;13.024;2022-08-06T03:43:32;2.17;;;1.40;;
18196;SDS011;9224;52.422;13.024;2022-08-06T03:46:00;3.03;;;1.50;;
18196;SDS011;9224;52.422;13.024;2022-08-06T03:48:28;1.93;;;1.47;;
18196;SDS011;9224;52.422;13.024;2022-08-06T03:50:57;1.70;;;1.30;;
18196;SDS011;9224;52.422;13.024;2022-08-06T03:53:28;3.43;;;1.43;;
18196;SDS011;9224;52.422;13.024;2022-08-06T03:55:58;2.43;;;1.80;;
18196;SDS011;9224;52.422;13.024;2022-08-06T03:58:26;2.07;;;1.53;;
18196;SDS011;9224;52.422;13.024;2022-08-06T04:00:55;1.93;;;1.23;;
18196;SDS011;9224;52.422;13.024;2022-08-06T04:03:25;1.80;;;1.70;;
18196;SDS011;9224;52.422;13.024;2022-08-06T04:05:52;3.40;;;1.57;;
18196;SDS011;9224;52.422;13.024;2022-08-06T04:08:20;3.13;;;1.40;;
18196;SDS011;9224;52.422;13.024;2022-08-06T04:10:48;1.70;;;1.60;;
18196;SDS011;9224;52.422;13.024;2022-08-06T04:13:16;5.00;;;1.60;;
18196;SDS011;9224;52.422;13.024;2022-08-06T04:15:44;2.07;;;1.60;;
18196;SDS011;9224;52.422;13.024;2022-08-06T04:18:13;2.13;;;1.93;;
18196;SDS011;9224;52.422;13.024;2022-08-06T04:20:42;6.40;;;1.90;;
18196;SDS011;9224;52.422;13.024;2022-08-06T04:23:10;2.23;;;1.70;;
18196;SDS011;9224;52.422;13.024;2022-08-06T04:25:38;2.47;;;1.83;;
18196;SDS011;9224;52.422;13.024;2022-08-06T04:28:07;2.58;;;1.67;;
18196;SDS011;9224;52.422;13.024;2022-08-06T04:30:35;2.42;;;1.50;;
18196;SDS011;9224;52.422;13.024;2022-08-06T04:33:03;1.88;;;1.65;;
18196;SDS011;9224;52.422;13.024;2022-08-06T04:35:32;4.03;;;2.13;;
18196;SDS011;9224;52.422;13.024;2022-08-06T04:37:59;2.97;;;1.85;;
18196;SDS011;9224;52.422;13.024;2022-08-06T04:40:26;3.60;;;2.10;;
18196;SDS011;9224;52.422;13.024;2022-08-06T04:42:53;2.63;;;1.80;;
18196;SDS011;9224;52.422;13.024;2022-08-06T04:45:20;2.65;;;1.70;;
18196;SDS011;9224;52.422;13.024;2022-08-06T04:47:47;3.70;;;1.90;;
18196;SDS011;9224;52.422;13.024;2022-08-06T04:50:14;2.08;;;1.88;;
18196;SDS011;9224;52.422;13.024;2022-08-06T04:52:42;2.83;;;1.90;;
18196;SDS011;9224;52.422;13.024;2022-08-06T04:55:09;1.90;;;1.63;;
18196;SDS011;9224;52.422;13.024;2022-08-06T04:57:35;2.58;;;1.88;;
18196;SDS011;9224;52.422;13.024;2022-08-06T05:00:02;3.03;;;1.98;;
18196;SDS011;9224;52.422;13.024;2022-08-06T05:02:29;1.80;;;1.70;;
18196;SDS011;9224;52.422;13.024;2022-08-06T05:04:56;4.20;;;1.90;;
18196;SDS011;9224;52.422;13.024;2022-08-06T05:07:23;1.88;;;1.67;;
18196;SDS011;9224;52.422;13.024;2022-08-06T05:09:54;2.58;;;1.48;;
18196;SDS011;9224;52.422;13.024;2022-08-06T05:12:21;4.40;;;2.07;;
18196;SDS011;9224;52.422;13.024;2022-08-06T05:14:52;1.80;;;1.63;;
18196;SDS011;9224;52.422;13.024;2022-08-06T05:17:22;2.90;;;1.88;;
18196;SDS011;9224;52.422;13.024;2022-08-06T05:19:51;3.85;;;1.75;;
18196;SDS011;9224;52.422;13.024;2022-08-06T05:22:20;2.72;;;1.88;;
18196;SDS011;9224;52.422;13.024;2022-08-06T05:24:48;3.08;;;1.85;;
18196;SDS011;9224;52.422;13.024;2022-08-06T05:27:16;2.45;;;1.60;;
18196;SDS011;9224;52.422;13.024;2022-08-06T05:29:43;2.17;;;1.97;;
18196;SDS011;9224;52.422;13.024;2022-08-06T05:32:10;5.05;;;2.10;;
18196;SDS011;9224;52.422;13.024;2022-08-06T05:34:36;5.13;;;1.92;;
18196;SDS011;9224;52.422;13.024;2022-08-06T05:37:03;2.58;;;1.70;;
18196;SDS011;9224;52.422;13.024;2022-08-06T05:39:29;3.47;;;1.52;;
18196;SDS011;9224;52.422;13.024;2022-08-06T05:41:56;2.55;;;1.67;;
18196;SDS011;9224;52.422;13.024;2022-08-06T05:44:24;2.13;;;1.63;;
18196;SDS011;9224;52.422;13.024;2022-08-06T05:46:51;2.17;;;1.60;;
18196;SDS011;9224;52.422;13.024;2022-08-06T05:49:19;2.30;;;1.52;;
18196;SDS011;9224;52.422;13.024;2022-08-06T05:51:50;2.63;;;1.42;;
18196;SDS011;9224;52.422;13.024;2022-08-06T05:54:20;2.85;;;1.40;;
18196;SDS011;9224;52.422;13.024;2022-08-06T05:56:50;2.33;;;1.35;;
18196;SDS011;9224;52.422;13.024;2022-08-06T05:59:18;2.47;;;1.60;;
18196;SDS011;9224;52.422;13.024;2022-08-06T06:01:47;2.25;;;1.30;;
18196;SDS011;9224;52.422;13.024;2022-08-06T06:04:14;2.20;;;1.30;;
18196;SDS011;9224;52.422;13.024;2022-08-06T06:06:41;2.47;;;1.50;;
18196;SDS011;9224;52.422;13.024;2022-08-06T06:09:09;2.13;;;1.27;;
18196;SDS011;9224;52.422;13.024;2022-08-06T06:11:35;2.30;;;1.40;;
18196;SDS011;9224;52.422;13.024;2022-08-06T06:14:02;3.00;;;1.40;;
18196;SDS011;9224;52.422;13.024;2022-08-06T06:16:29;2.27;;;1.20;;
18196;SDS011;9224;52.422;13.024;2022-08-06T06:19:02;2.08;;;1.30;;
18196;SDS011;9224;52.422;13.024;2022-08-06T06:21:38;2.25;;;1.38;;
18196;SDS011;9224;52.422;13.024;2022-08-06T06:24:13;2.08;;;1.15;;
18196;SDS011;9224;52.422;13.024;2022-08-06T06:26:45;2.75;;;1.33;;
18196;SDS011;9224;52.422;13.024;2022-08-06T06:29:16;2.40;;;1.60;;
18196;SDS011;9224;52.422;13.024;2022-08-06T06:31:53;1.92;;;1.15;;
18196;SDS011;9224;52.422;13.024;2022-08-06T06:34:33;3.30;;;1.50;;
18196;SDS011;9224;52.422;13.024;2022-08-06T06:37:09;2.90;;;1.25;;
18196;SDS011;9224;52.422;13.024;2022-08-06T06:39:39;3.38;;;1.40;;
18196;SDS011;9224;52.422;13.024;2022-08-06T06:42:09;2.13;;;1.27;;
18196;SDS011;9224;52.422;13.024;2022-08-06T06:44:37;2.40;;;1.20;;
18196;SDS011;9224;52.422;13.024;2022-08-06T06:47:08;3.10;;;1.25;;
18196;SDS011;9224;52.422;13.024;2022-08-06T06:49:40;3.08;;;1.45;;
18196;SDS011;9224;52.422;13.024;2022-08-06T06:52:10;2.87;;;0.93;;
18196;SDS011;9224;52.422;13.024;2022-08-06T06:54:41;1.80;;;1.13;;
18196;SDS011;9224;52.422;13.024;2022-08-06T07:00:01;2.35;;;1.13;;
18196;SDS011;9224;52.422;13.024;2022-08-06T07:02:31;3.03;;;1.30;;
18196;SDS011;9224;52.422;13.024;2022-08-06T07:05:01;2.40;;;1.30;;
18196;SDS011;9224;52.422;13.024;2022-08-06T07:07:28;2.53;;;1.13;;
18196;SDS011;9224;52.422;13.024;2022-08-06T07:09:56;2.30;;;1.20;;
18196;SDS011;9224;52.422;13.024;2022-08-06T07:12:24;2.17;;;1.10;;
18196;SDS011;9224;52.422;13.024;2022-08-06T07:14:52;1.60;;;0.90;;
18196;SDS011;9224;52.422;13.024;2022-08-06T07:17:20;2.60;;;1.10;;
18196;SDS011;9224;52.422;13.024;2022-08-06T07:19:47;1.70;;;1.20;;
18196;SDS011;9224;52.422;13.024;2022-08-06T07:22:17;2.70;;;0.90;;
18196;SDS011;9224;52.422;13.024;2022-08-06T07:24:44;1.90;;;0.95;;
18196;SDS011;9224;52.422;13.024;2022-08-06T07:27:13;2.13;;;0.80;;
18196;SDS011;9224;52.422;13.024;2022-08-06T07:29:40;3.00;;;1.05;;
18196;SDS011;9224;52.422;13.024;2022-08-06T07:32:07;1.52;;;1.13;;
18196;SDS011;9224;52.422;13.024;2022-08-06T07:34:35;1.65;;;0.90;;
18196;SDS011;9224;52.422;13.024;2022-08-06T07:37:02;1.60;;;1.20;;
18196;SDS011;9224;52.422;13.024;2022-08-06T07:39:32;2.50;;;1.07;;
18196;SDS011;9224;52.422;13.024;2022-08-06T07:42:01;2.45;;;0.98;;
18196;SDS011;9224;52.422;13.024;2022-08-06T07:44:34;1.42;;;0.73;;
18196;SDS011;9224;52.422;13.024;2022-08-06T07:47:02;2.78;;;1.00;;
18196;SDS011;9224;52.422;13.024;2022-08-06T07:49:38;1.02;;;0.93;;
18196;SDS011;9224;52.422;13.024;2022-08-06T07:52:07;1.25;;;0.95;;
18196;SDS011;9224;52.422;13.024;2022-08-06T07:54:37;2.80;;;0.73;;
18196;SDS011;9224;52.422;13.024;2022-08-06T07:57:04;2.47;;;1.05;;
18196;SDS011;9224;52.422;13.024;2022-08-06T07:59:31;2.30;;;0.90;;
18196;SDS011;9224;52.422;13.024;2022-08-06T08:01:58;1.50;;;0.73;;
18196;SDS011;9224;52.422;13.024;2022-08-06T08:04:25;1.35;;;0.77;;
18196;SDS011;9224;52.422;13.024;2022-08-06T08:07:09;2.60;;;0.70;;
18196;SDS011;9224;52.422;13.024;2022-08-06T08:09:37;0.85;;;0.40;;
18196;SDS011;9224;52.422;13.024;2022-08-06T08:12:05;2.07;;;0.73;;
18196;SDS011;9224;52.422;13.024;2022-08-06T08:14:32;0.90;;;0.60;;
18196;SDS011;9224;52.422;13.024;2022-08-06T08:17:00;1.83;;;0.82;;
18196;SDS011;9224;52.422;13.024;2022-08-06T08:19:27;1.63;;;0.77;;
18196;SDS011;9224;52.422;13.024;2022-08-06T08:21:56;1.50;;;0.60;;
18196;SDS011;9224;52.422;13.024;2022-08-06T08:24:23;1.02;;;0.70;;
18196;SDS011;9224;52.422;13.024;2022-08-06T08:26:51;1.77;;;0.70;;
18196;SDS011;9224;52.422;13.024;2022-08-06T08:29:18;0.60;;;0.40;;
18196;SDS011;9224;52.422;13.024;2022-08-06T08:31:45;2.13;;;0.70;;
18196;SDS011;9224;52.422;13.024;2022-08-06T08:34:11;0.55;;;0.45;;
18196;SDS011;9224;52.422;13.024;2022-08-06T08:36:38;1.65;;;0.75;;
18196;SDS011;9224;52.422;13.024;2022-08-06T08:39:05;1.27;;;0.70;;
18196;SDS011;9224;52.422;13.024;2022-08-06T08:41:33;1.70;;;0.70;;
18196;SDS011;9224;52.422;13.024;2022-08-06T08:44:04;0.95;;;0.85;;
18196;SDS011;9224;52.422;13.024;2022-08-06T08:46:32;1.08;;;0.57;;
18196;SDS011;9224;52.422;13.024;2022-08-06T08:49:00;3.20;;;1.02;;
18196;SDS011;9224;52.422;13.024;2022-08-06T08:51:28;2.63;;;0.85;;
18196;SDS011;9224;52.422;13.024;2022-08-06T08:53:57;2.27;;;0.60;;
18196;SDS011;9224;52.422;13.024;2022-08-06T08:56:26;1.52;;;0.57;;
18196;SDS011;9224;52.422;13.024;2022-08-06T08:58:52;1.23;;;0.88;;
18196;SDS011;9224;52.422;13.024;2022-08-06T09:01:20;0.82;;;0.65;;
18196;SDS011;9224;52.422;13.024;2022-08-06T09:03:46;1.55;;;0.50;;
18196;SDS011;9224;52.422;13.024;2022-08-06T09:06:13;0.55;;;0.40;;
18196;SDS011;9224;52.422;13.024;2022-08-06T09:08:40;0.85;;;0.60;;
18196;SDS011;9224;52.422;13.024;2022-08-06T09:11:07;1.23;;;0.63;;
18196;SDS011;9224;52.422;13.024;2022-08-06T09:13:33;2.50;;;0.50;;
18196;SDS011;9224;52.422;13.024;2022-08-06T09:16:00;0.68;;;0.55;;
18196;SDS011;9224;52.422;13.024;2022-08-06T09:18:28;0.60;;;0.40;;
18196;SDS011;9224;52.422;13.024;2022-08-06T09:20:54;1.40;;;0.47;;
18196;SDS011;9224;52.422;13.024;2022-08-06T09:23:21;1.20;;;0.45;;
18196;SDS011;9224;52.422;13.024;2022-08-06T09:25:48;0.65;;;0.47;;
18196;SDS011;9224;52.422;13.024;2022-08-06T09:28:29;0.88;;;0.50;;
18196;SDS011;9224;52.422;13.024;2022-08-06T09:31:00;1.70;;;0.60;;
18196;SDS011;9224;52.422;13.024;2022-08-06T09:33:30;0.70;;;0.60;;
18196;SDS011;9224;52.422;13.024;2022-08-06T09:35:57;1.02;;;0.40;;
18196;SDS011;9224;52.422;13.024;2022-08-06T09:38:24;1.20;;;0.60;;
18196;SDS011;9224;52.422;13.024;2022-08-06T09:41:04;1.30;;;0.32;;
18196;SDS011;9224;52.422;13.024;2022-08-06T09:43:32;3.00;;;0.50;;
18196;SDS011;9224;52.422;13.024;2022-08-06T09:45:58;0.98;;;0.40;;
18196;SDS011;9224;52.422;13.024;2022-08-06T09:48:25;1.60;;;0.50;;
18196;SDS011;9224;52.422;13.024;2022-08-06T09:50:52;1.50;;;0.30;;
18196;SDS011;9224;52.422;13.024;2022-08-06T09:53:19;1.50;;;0.47;;
18196;SDS011;9224;52.422;13.024;2022-08-06T09:55:46;1.05;;;0.40;;
18196;SDS011;9224;52.422;13.024;2022-08-06T09:58:13;2.13;;;0.60;;
18196;SDS011;9224;52.422;13.024;2022-08-06T10:00:40;0.93;;;0.60;;
18196;SDS011;9224;52.422;13.024;2022-08-06T10:03:07;1.85;;;0.70;;
18196;SDS011;9224;52.422;13.024;2022-08-06T10:05:35;1.17;;;0.63;;
18196;SDS011;9224;52.422;13.024;2022-08-06T10:08:05;1.00;;;0.65;;
18196;SDS011;9224;52.422;13.024;2022-08-06T10:10:37;0.43;;;0.35;;
18196;SDS011;9224;52.422;13.024;2022-08-06T10:13:17;0.73;;;0.47;;
18196;SDS011;9224;52.422;13.024;2022-08-06T10:15:44;0.60;;;0.45;;
18196;SDS011;9224;52.422;13.024;2022-08-06T10:18:20;1.50;;;0.55;;
18196;SDS011;9224;52.422;13.024;2022-08-06T10:21:03;1.70;;;0.57;;
18196;SDS011;9224;52.422;13.024;2022-08-06T10:23:35;2.27;;;0.60;;
18196;SDS011;9224;52.422;13.024;2022-08-06T10:26:15;2.00;;;0.57;;
18196;SDS011;9224;52.422;13.024;2022-08-06T10:28:46;1.67;;;0.47;;
18196;SDS011;9224;52.422;13.024;2022-08-06T10:34:50;0.80;;;0.50;;
18196;SDS011;9224;52.422;13.024;2022-08-06T10:37:17;0.80;;;0.50;;
18196;SDS011;9224;52.422;13.024;2022-08-06T10:39:47;0.52;;;0.45;;
18196;SDS011;9224;52.422;13.024;2022-08-06T10:42:14;0.77;;;0.50;;
18196;SDS011;9224;52.422;13.024;2022-08-06T10:44:44;0.63;;;0.32;;
18196;SDS011;9224;52.422;13.024;2022-08-06T10:47:11;1.13;;;0.40;;
18196;SDS011;9224;52.422;13.024;2022-08-06T10:49:37;2.00;;;0.50;;
18196;SDS011;9224;52.422;13.024;2022-08-06T10:52:04;0.88;;;0.65;;
18196;SDS011;9224;52.422;13.024;2022-08-06T10:54:31;1.33;;;0.57;;
18196;SDS011;9224;52.422;13.024;2022-08-06T10:56:58;1.17;;;0.50;;
18196;SDS011;9224;52.422;13.024;2022-08-06T10:59:26;1.05;;;0.32;;
18196;SDS011;9224;52.422;13.024;2022-08-06T11:01:55;1.73;;;0.37;;
18196;SDS011;9224;52.422;13.024;2022-08-06T11:04:37;1.02;;;0.45;;
18196;SDS011;9224;52.422;13.024;2022-08-06T11:07:15;1.50;;;0.60;;
18196;SDS011;9224;52.422;13.024;2022-08-06T11:10:01;0.95;;;0.45;;
18196;SDS011;9224;52.422;13.024;2022-08-06T11:12:48;0.95;;;0.35;;
18196;SDS011;9224;52.422;13.024;2022-08-06T11:15:17;1.60;;;0.52;;
18196;SDS011;9224;52.422;13.024;2022-08-06T11:17:44;2.63;;;0.68;;
18196;SDS011;9224;52.422;13.024;2022-08-06T11:23:03;6.25;;;1.02;;
18196;SDS011;9224;52.422;13.024;2022-08-06T11:25:36;2.28;;;0.40;;
18196;SDS011;9224;52.422;13.024;2022-08-06T11:28:05;2.40;;;0.50;;
18196;SDS011;9224;52.422;13.024;2022-08-06T11:30:36;0.77;;;0.40;;
18196;SDS011;9224;52.422;13.024;2022-08-06T11:33:04;1.00;;;0.43;;
18196;SDS011;9224;52.422;13.024;2022-08-06T11:35:40;1.67;;;0.50;;
18196;SDS011;9224;52.422;13.024;2022-08-06T11:38:09;1.60;;;0.52;;
18196;SDS011;9224;52.422;13.024;2022-08-06T11:40:54;1.50;;;0.60;;
18196;SDS011;9224;52.422;13.024;2022-08-06T11:46:43;2.40;;;0.70;;
18196;SDS011;9224;52.422;13.024;2022-08-06T11:49:12;1.70;;;0.70;;
18196;SDS011;9224;52.422;13.024;2022-08-06T11:51:41;1.83;;;0.40;;
18196;SDS011;9224;52.422;13.024;2022-08-06T11:54:12;1.80;;;0.45;;
18196;SDS011;9224;52.422;13.024;2022-08-06T11:59:44;0.90;;;0.35;;
18196;SDS011;9224;52.422;13.024;2022-08-06T12:02:15;0.57;;;0.40;;
18196;SDS011;9224;52.422;13.024;2022-08-06T12:04:43;0.30;;;0.30;;
18196;SDS011;9224;52.422;13.024;2022-08-06T12:07:18;1.23;;;0.73;;
18196;SDS011;9224;52.422;13.024;2022-08-06T12:09:47;0.75;;;0.50;;
18196;SDS011;9224;52.422;13.024;2022-08-06T12:12:31;0.70;;;0.40;;
18196;SDS011;9224;52.422;13.024;2022-08-06T12:14:59;1.05;;;0.40;;
18196;SDS011;9224;52.422;13.024;2022-08-06T12:17:28;0.77;;;0.40;;
18196;SDS011;9224;52.422;13.024;2022-08-06T12:19:56;0.98;;;0.47;;
18196;SDS011;9224;52.422;13.024;2022-08-06T12:22:24;1.20;;;0.50;;
18196;SDS011;9224;52.422;13.024;2022-08-06T12:24:51;0.52;;;0.43;;
18196;SDS011;9224;52.422;13.024;2022-08-06T12:27:20;0.63;;;0.32;;
18196;SDS011;9224;52.422;13.024;2022-08-06T12:29:47;1.05;;;0.50;;
18196;SDS011;9224;52.422;13.024;2022-08-06T12:32:20;1.55;;;0.50;;
18196;SDS011;9224;52.422;13.024;2022-08-06T12:34:49;0.70;;;0.50;;
18196;SDS011;9224;52.422;13.024;2022-08-06T12:37:16;2.40;;;0.75;;
18196;SDS011;9224;52.422;13.024;2022-08-06T12:39:44;6.05;;;0.95;;
18196;SDS011;9224;52.422;13.024;2022-08-06T12:42:28;0.85;;;0.47;;
18196;SDS011;9224;52.422;13.024;2022-08-06T12:44:55;1.65;;;0.57;;
18196;SDS011;9224;52.422;13.024;2022-08-06T12:47:22;1.63;;;0.70;;
18196;SDS011;9224;52.422;13.024;2022-08-06T12:49:52;1.17;;;0.50;;
18196;SDS011;9224;52.422;13.024;2022-08-06T12:52:19;0.80;;;0.40;;
18196;SDS011;9224;52.422;13.024;2022-08-06T12:54:46;3.35;;;0.80;;
18196;SDS011;9224;52.422;13.024;2022-08-06T12:57:20;1.48;;;0.50;;
18196;SDS011;9224;52.422;13.024;2022-08-06T12:59:47;1.83;;;0.50;;
18196;SDS011;9224;52.422;13.024;2022-08-06T13:02:14;1.65;;;0.55;;
18196;SDS011;9224;52.422;13.024;2022-08-06T13:04:42;0.85;;;0.60;;
18196;SDS011;9224;52.422;13.024;2022-08-06T13:07:11;1.50;;;0.70;;
18196;SDS011;9224;52.422;13.024;2022-08-06T13:09:39;0.98;;;0.47;;
18196;SDS011;9224;52.422;13.024;2022-08-06T13:12:15;1.60;;;0.43;;
18196;SDS011;9224;52.422;13.024;2022-08-06T13:14:48;1.75;;;0.40;;
18196;SDS011;9224;52.422;13.024;2022-08-06T13:17:15;1.80;;;0.63;;
18196;SDS011;9224;52.422;13.024;2022-08-06T13:19:49;1.80;;;0.50;;
18196;SDS011;9224;52.422;13.024;2022-08-06T13:22:19;1.10;;;0.50;;
18196;SDS011;9224;52.422;13.024;2022-08-06T13:24:46;0.40;;;0.40;;
18196;SDS011;9224;52.422;13.024;2022-08-06T13:27:12;0.68;;;0.40;;
18196;SDS011;9224;52.422;13.024;2022-08-06T13:32:30;1.00;;;0.43;;
18196;SDS011;9224;52.422;13.024;2022-08-06T13:34:57;1.13;;;0.47;;
18196;SDS011;9224;52.422;13.024;2022-08-06T13:40:35;1.40;;;0.60;;
18196;SDS011;9224;52.422;13.024;2022-08-06T13:43:03;1.70;;;0.47;;
18196;SDS011;9224;52.422;13.024;2022-08-06T13:45:31;1.42;;;0.60;;
18196;SDS011;9224;52.422;13.024;2022-08-06T13:48:02;2.17;;;0.60;;
18196;SDS011;9224;52.422;13.024;2022-08-06T13:50:28;1.10;;;0.70;;
18196;SDS011;9224;52.422;13.024;2022-08-06T13:52:55;0.88;;;0.63;;
18196;SDS011;9224;52.422;13.024;2022-08-06T13:55:24;1.02;;;0.65;;
18196;SDS011;9224;52.422;13.024;2022-08-06T13:57:51;0.60;;;0.43;;
18196;SDS011;9224;52.422;13.024;2022-08-06T14:00:18;1.45;;;0.43;;
18196;SDS011;9224;52.422;13.024;2022-08-06T14:02:45;0.80;;;0.40;;
18196;SDS011;9224;52.422;13.024;2022-08-06T14:05:11;1.33;;;0.30;;
18196;SDS011;9224;52.422;13.024;2022-08-06T14:07:38;4.72;;;0.73;;
18196;SDS011;9224;52.422;13.024;2022-08-06T14:10:05;1.00;;;0.40;;
18196;SDS011;9224;52.422;13.024;2022-08-06T14:12:35;0.80;;;0.30;;
18196;SDS011;9224;52.422;13.024;2022-08-06T14:15:02;1.38;;;0.25;;
18196;SDS011;9224;52.422;13.024;2022-08-06T14:17:29;1.40;;;0.63;;
18196;SDS011;9224;52.422;13.024;2022-08-06T14:19:55;1.20;;;0.60;;
18196;SDS011;9224;52.422;13.024;2022-08-06T14:22:22;1.73;;;0.55;;
18196;SDS011;9224;52.422;13.024;2022-08-06T14:24:48;2.22;;;0.40;;
18196;SDS011;9224;52.422;13.024;2022-08-06T14:27:15;1.15;;;0.43;;
18196;SDS011;9224;52.422;13.024;2022-08-06T14:29:43;0.65;;;0.40;;
18196;SDS011;9224;52.422;13.024;2022-08-06T14:32:10;2.75;;;0.70;;
18196;SDS011;9224;52.422;13.024;2022-08-06T14:34:37;0.80;;;0.40;;
18196;SDS011;9224;52.422;13.024;2022-08-06T14:37:03;1.17;;;0.50;;
18196;SDS011;9224;52.422;13.024;2022-08-06T14:39:30;1.42;;;0.40;;
18196;SDS011;9224;52.422;13.024;2022-08-06T14:41:56;2.53;;;0.80;;
18196;SDS011;9224;52.422;13.024;2022-08-06T14:44:48;2.03;;;0.57;;
18196;SDS011;9224;52.422;13.024;2022-08-06T14:47:21;2.25;;;0.55;;
18196;SDS011;9224;52.422;13.024;2022-08-06T14:50:03;2.55;;;0.70;;
18196;SDS011;9224;52.422;13.024;2022-08-06T14:52:39;0.93;;;0.57;;
18196;SDS011;9224;52.422;13.024;2022-08-06T14:55:06;1.17;;;0.38;;
18196;SDS011;9224;52.422;13.024;2022-08-06T14:57:34;1.15;;;0.60;;
18196;SDS011;9224;52.422;13.024;2022-08-06T15:00:02;1.00;;;0.60;;
18196;SDS011;9224;52.422;13.024;2022-08-06T15:02:29;3.47;;;0.80;;
18196;SDS011;9224;52.422;13.024;2022-08-06T15:04:56;0.63;;;0.43;;
18196;SDS011;9224;52.422;13.024;2022-08-06T15:07:23;1.87;;;0.63;;
18196;SDS011;9224;52.422;13.024;2022-08-06T15:09:49;0.93;;;0.57;;
18196;SDS011;9224;52.422;13.024;2022-08-06T15:12:16;1.80;;;0.60;;
18196;SDS011;9224;52.422;13.024;2022-08-06T15:14:43;1.40;;;0.70;;
18196;SDS011;9224;52.422;13.024;2022-08-06T15:17:11;1.30;;;0.60;;
18196;SDS011;9224;52.422;13.024;2022-08-06T15:19:37;0.88;;;0.50;;